createdAt,value
2022-10-04T00:02:27.849Z,14.68
2022-10-04T00:05:04.156Z,17.95
2022-10-04T00:07:36.176Z,11.98
2022-10-04T00:10:08.880Z,12.38
2022-10-04T00:12:40.807Z,13.97
2022-10-04T00:15:22.039Z,15.35
2022-10-04T00:18:22.043Z,13.00
2022-10-04T00:21:04.166Z,17.38
2022-10-04T00:23:48.311Z,17.73
2022-10-04T00:26:53.658Z,14.98
2022-10-04T00:29:42.125Z,14.85
2022-10-04T00:32:33.511Z,17.40
2022-10-04T00:35:05.744Z,18.33
2022-10-04T00:37:59.006Z,13.93
2022-10-04T00:40:30.787Z,16.15
2022-10-04T00:43:03.111Z,16.45
2022-10-04T00:45:37.250Z,16.13
2022-10-04T00:48:31.220Z,13.60
2022-10-04T00:51:07.957Z,18.47
2022-10-04T00:53:43.295Z,17.75
2022-10-04T00:56:16.259Z,13.20
2022-10-04T00:58:51.390Z,15.45
2022-10-04T01:01:24.777Z,15.60
2022-10-04T01:03:56.623Z,14.35
2022-10-04T01:06:29.387Z,18.55
2022-10-04T01:09:08.059Z,18.20
2022-10-04T01:11:40.659Z,18.77
2022-10-04T01:14:14.606Z,13.32
2022-10-04T01:16:44.688Z,18.58
2022-10-04T01:19:31.906Z,16.97
2022-10-04T01:22:13.312Z,15.10
2022-10-04T01:24:46.879Z,15.05
2022-10-04T01:27:38.568Z,13.52
2022-10-04T01:30:10.994Z,19.00
2022-10-04T01:32:41.432Z,16.10
2022-10-04T01:35:12.929Z,19.15
2022-10-04T01:37:42.846Z,11.18
2022-10-04T01:40:15.172Z,13.98
2022-10-04T01:42:48.835Z,21.48
2022-10-04T01:45:24.161Z,14.95
2022-10-04T01:47:57.452Z,13.43
2022-10-04T01:50:31.813Z,13.38
2022-10-04T01:53:04.264Z,17.30
2022-10-04T01:55:38.099Z,13.57
2022-10-04T01:58:15.680Z,12.77
2022-10-04T02:00:51.522Z,17.02
2022-10-04T02:03:24.966Z,15.25
2022-10-04T02:05:57.269Z,17.08
2022-10-04T02:08:29.439Z,15.90
2022-10-04T02:11:02.643Z,15.00
2022-10-04T02:13:37.153Z,15.68
2022-10-04T02:16:07.357Z,13.05
2022-10-04T02:18:40.256Z,12.88
2022-10-04T02:21:10.572Z,14.95
2022-10-04T02:23:40.508Z,14.83
2022-10-04T02:26:14.180Z,13.57
2022-10-04T02:28:43.820Z,17.58
2022-10-04T02:31:26.499Z,15.93
2022-10-04T02:33:59.556Z,15.68
2022-10-04T02:36:30.840Z,20.73
2022-10-04T02:39:04.387Z,14.57
2022-10-04T02:41:40.416Z,19.85
2022-10-04T02:44:14.986Z,15.20
2022-10-04T02:46:48.639Z,21.33
2022-10-04T02:49:23.209Z,18.20
2022-10-04T02:51:55.201Z,17.48
2022-10-04T02:54:30.713Z,16.92
2022-10-04T02:57:03.556Z,18.45
2022-10-04T02:59:35.485Z,18.80
2022-10-04T03:02:05.553Z,17.67
2022-10-04T03:04:36.920Z,16.90
2022-10-04T03:07:09.515Z,19.50
2022-10-04T03:09:40.178Z,16.08
2022-10-04T03:12:13.830Z,16.23
2022-10-04T03:14:43.509Z,17.83
2022-10-04T03:17:13.228Z,16.23
2022-10-04T03:19:42.898Z,22.60
2022-10-04T03:22:14.669Z,21.55
2022-10-04T03:24:49.163Z,16.98
2022-10-04T03:27:25.036Z,18.85
2022-10-04T03:29:59.054Z,17.02
2022-10-04T03:32:30.481Z,19.77
2022-10-04T03:35:01.435Z,19.05
2022-10-04T03:37:32.679Z,22.00
2022-10-04T03:40:02.866Z,23.20
2022-10-04T03:42:37.345Z,17.30
2022-10-04T03:45:11.101Z,17.73
2022-10-04T03:47:42.457Z,25.67
2022-10-04T03:50:18.719Z,19.10
2022-10-04T03:52:54.020Z,17.80
2022-10-04T03:55:24.458Z,21.98
2022-10-04T03:57:56.656Z,21.73
2022-10-04T04:00:26.252Z,20.25
2022-10-04T04:02:59.316Z,21.88
2022-10-04T04:05:32.105Z,25.40
2022-10-04T04:08:07.237Z,18.35
2022-10-04T04:10:39.800Z,21.50
2022-10-04T04:13:21.066Z,18.27
2022-10-04T04:15:50.719Z,18.97
2022-10-04T04:18:25.849Z,19.67
2022-10-04T04:20:59.428Z,27.25
2022-10-04T04:23:33.177Z,19.92
2022-10-04T04:26:16.895Z,17.52
2022-10-04T04:28:51.808Z,20.77
2022-10-04T04:31:23.837Z,21.10
2022-10-04T04:33:59.310Z,18.17
2022-10-04T04:36:29.986Z,24.48
2022-10-04T04:39:22.608Z,19.90
2022-10-04T04:41:52.342Z,19.48
2022-10-04T04:44:24.826Z,18.95
2022-10-04T04:47:00.411Z,20.23
2022-10-04T04:49:32.614Z,23.88
2022-10-04T04:52:02.467Z,19.50
2022-10-04T04:54:32.043Z,19.40
2022-10-04T04:57:01.624Z,18.60
2022-10-04T04:59:34.591Z,16.48
2022-10-04T05:02:04.261Z,18.10
2022-10-04T05:04:33.849Z,17.95
2022-10-04T05:07:06.371Z,24.83
2022-10-04T05:09:38.523Z,20.20
2022-10-04T05:12:11.605Z,21.50
2022-10-04T05:14:49.030Z,25.10
2022-10-04T05:17:22.923Z,18.25
2022-10-04T05:19:53.649Z,22.40
2022-10-04T05:22:25.479Z,17.08
2022-10-04T05:24:56.584Z,21.08
2022-10-04T05:27:30.373Z,19.73
2022-10-04T05:30:08.126Z,19.95
2022-10-04T05:32:46.372Z,15.18
2022-10-04T05:35:20.570Z,21.10
2022-10-04T05:38:05.295Z,15.20
2022-10-04T05:40:41.696Z,19.23
2022-10-04T05:43:25.421Z,16.33
2022-10-04T05:46:25.358Z,16.98
2022-10-04T05:48:57.172Z,16.65
2022-10-04T05:51:27.831Z,16.30
2022-10-04T05:53:58.266Z,15.45
2022-10-04T05:56:51.771Z,15.85
2022-10-04T05:59:49.849Z,14.20
2022-10-04T06:02:31.358Z,16.40
2022-10-04T06:05:11.906Z,17.98
2022-10-04T06:07:44.765Z,13.15
2022-10-04T06:10:37.840Z,12.15
2022-10-04T06:13:13.086Z,15.73
2022-10-04T06:15:59.667Z,16.53
2022-10-04T06:18:46.718Z,14.32
2022-10-04T06:21:23.444Z,15.45
2022-10-04T06:23:57.773Z,16.98
2022-10-04T06:26:30.327Z,16.70
2022-10-04T06:29:02.648Z,19.27
2022-10-04T06:31:57.380Z,17.55
2022-10-04T06:35:06.774Z,17.37
2022-10-04T06:37:48.171Z,17.10
2022-10-04T06:40:34.337Z,14.70
2022-10-04T06:43:18.251Z,14.65
2022-10-04T06:45:55.931Z,14.47
2022-10-04T06:48:51.265Z,17.10
2022-10-04T06:51:29.562Z,15.65
2022-10-04T06:54:05.673Z,11.20
2022-10-04T06:56:50.114Z,14.50
2022-10-04T06:59:37.141Z,11.20
2022-10-04T07:02:10.681Z,13.93
2022-10-04T07:05:09.438Z,15.30
2022-10-04T07:07:39.346Z,14.43
2022-10-04T07:10:26.848Z,12.80
2022-10-04T07:13:06.836Z,10.90
2022-10-04T07:15:44.651Z,16.00
2022-10-04T07:18:18.621Z,14.60
2022-10-04T07:20:48.991Z,16.92
2022-10-04T07:23:28.681Z,15.50
2022-10-04T07:26:01.611Z,14.90
2022-10-04T07:28:46.413Z,14.23
2022-10-04T07:31:17.829Z,15.88
2022-10-04T07:33:49.902Z,15.20
2022-10-04T07:36:22.997Z,11.93
2022-10-04T07:39:00.249Z,15.88
2022-10-04T07:41:32.522Z,17.40
2022-10-04T07:44:04.779Z,14.30
2022-10-04T07:46:52.813Z,13.57
2022-10-04T07:49:23.962Z,14.57
2022-10-04T07:52:06.215Z,15.88
2022-10-04T07:54:42.034Z,12.73
2022-10-04T07:57:17.400Z,12.02
2022-10-04T07:59:52.773Z,15.05
2022-10-04T08:02:31.645Z,13.43
2022-10-04T08:05:08.032Z,13.75
2022-10-04T08:07:49.685Z,12.50
2022-10-04T08:10:27.100Z,11.80
2022-10-04T08:13:00.939Z,12.50
2022-10-04T08:15:39.346Z,13.25
2022-10-04T08:18:20.675Z,14.55
2022-10-04T08:20:51.764Z,14.73
2022-10-04T08:23:37.026Z,15.25
2022-10-04T08:26:20.131Z,16.35
2022-10-04T08:29:08.564Z,13.43
2022-10-04T08:31:55.857Z,15.25
2022-10-04T08:34:34.646Z,15.63
2022-10-04T08:37:11.890Z,15.07
2022-10-04T08:39:53.225Z,15.13
2022-10-04T08:42:42.041Z,12.98
2022-10-04T08:45:26.920Z,9.75
2022-10-04T08:48:33.005Z,13.52
2022-10-04T08:51:47.409Z,11.57
2022-10-04T08:54:42.650Z,11.10
2022-10-04T08:57:38.147Z,18.45
2022-10-04T09:00:16.589Z,12.85
2022-10-04T09:03:16.722Z,14.38
2022-10-04T09:06:17.860Z,12.70
2022-10-04T09:09:19.761Z,13.63
2022-10-04T09:12:01.067Z,14.40
2022-10-04T09:14:45.831Z,14.10
2022-10-04T09:17:23.169Z,11.93
2022-10-04T09:20:13.926Z,9.60
2022-10-04T09:22:57.088Z,10.10
2022-10-04T09:25:47.396Z,12.30
2022-10-04T09:29:04.934Z,10.87
2022-10-04T09:32:10.440Z,9.93
2022-10-04T09:34:49.845Z,10.90
2022-10-04T09:37:32.985Z,12.80
2022-10-04T09:40:31.985Z,15.52
2022-10-04T09:43:16.333Z,11.17
2022-10-04T09:45:55.226Z,9.88
2022-10-04T09:48:40.623Z,14.55
2022-10-04T09:51:19.855Z,9.55
2022-10-04T09:54:14.982Z,10.25
2022-10-04T09:56:53.345Z,11.90
2022-10-04T09:59:42.478Z,9.70
2022-10-04T10:02:56.424Z,12.80
2022-10-04T10:05:33.523Z,12.20
2022-10-04T10:08:12.207Z,13.88
2022-10-04T10:10:59.424Z,10.60
2022-10-04T10:13:59.523Z,9.63
2022-10-04T10:16:42.010Z,7.30
2022-10-04T10:19:45.286Z,9.38
2022-10-04T10:22:31.112Z,9.55
2022-10-04T10:25:18.774Z,10.35
2022-10-04T10:28:07.934Z,11.57
2022-10-04T10:30:49.872Z,11.00
2022-10-04T10:33:42.542Z,10.53
2022-10-04T10:36:24.492Z,8.88
2022-10-04T10:39:06.106Z,9.90
2022-10-04T10:41:44.873Z,7.90
2022-10-04T10:44:23.575Z,22.13
2022-10-04T10:47:01.663Z,8.60
2022-10-04T10:49:44.353Z,9.35
2022-10-04T10:52:43.517Z,11.35
2022-10-04T10:55:32.365Z,9.50
2022-10-04T10:58:34.085Z,10.20
2022-10-04T11:01:18.808Z,10.75
2022-10-04T11:04:16.512Z,11.07
2022-10-04T11:07:14.111Z,9.48
2022-10-04T11:10:16.293Z,10.73
2022-10-04T11:13:13.883Z,7.47
2022-10-04T11:15:53.586Z,9.85
2022-10-04T11:18:49.681Z,11.20
2022-10-04T11:21:50.653Z,13.82
2022-10-04T11:24:45.032Z,9.77
2022-10-04T11:27:20.634Z,9.70
2022-10-04T11:30:08.625Z,10.45
2022-10-04T11:33:12.977Z,7.75
2022-10-04T11:36:00.342Z,9.20
2022-10-04T11:38:48.839Z,10.18
2022-10-04T11:41:23.254Z,10.43
2022-10-04T11:44:16.423Z,9.70
2022-10-04T11:46:52.441Z,11.05
2022-10-04T11:49:35.589Z,10.05
2022-10-04T11:52:34.346Z,9.27
2022-10-04T11:55:54.386Z,8.60
2022-10-04T11:58:32.793Z,8.75
2022-10-04T12:01:22.673Z,8.20
2022-10-04T12:04:22.226Z,9.10
2022-10-04T12:07:08.355Z,6.85
2022-10-04T12:09:44.040Z,7.15
2022-10-04T12:12:41.001Z,10.07
2022-10-04T12:15:52.045Z,7.20
2022-10-04T12:18:41.864Z,6.53
2022-10-04T12:24:13.138Z,11.00
2022-10-04T12:27:02.875Z,10.63
2022-10-04T12:30:10.547Z,7.30
2022-10-04T12:32:45.512Z,9.25
2022-10-04T12:35:25.276Z,8.38
2022-10-04T12:38:16.339Z,7.78
2022-10-04T12:40:51.388Z,8.32
2022-10-04T12:43:28.104Z,7.00
2022-10-04T12:46:07.783Z,8.23
2022-10-04T12:48:48.278Z,9.85
2022-10-04T12:51:39.479Z,6.00
2022-10-04T12:54:24.024Z,9.23
2022-10-04T12:57:01.884Z,6.68
2022-10-04T12:59:43.934Z,8.30
2022-10-04T13:02:25.556Z,9.10
2022-10-04T13:04:57.561Z,9.15
2022-10-04T13:07:51.796Z,8.25
2022-10-04T13:10:33.211Z,5.70
2022-10-04T13:13:30.048Z,8.60
2022-10-04T13:19:08.611Z,8.97
2022-10-04T13:22:04.874Z,10.68
2022-10-04T13:24:55.150Z,9.07
2022-10-04T13:27:32.473Z,12.23
2022-10-04T13:30:04.803Z,8.38
2022-10-04T13:32:39.259Z,8.05
2022-10-04T13:35:20.497Z,8.82
2022-10-04T13:38:02.486Z,7.72
2022-10-04T13:40:47.330Z,6.65
2022-10-04T13:43:36.616Z,9.60
2022-10-04T13:46:14.663Z,6.60
2022-10-04T13:49:07.543Z,10.13
2022-10-04T13:52:10.068Z,7.85
2022-10-04T13:54:56.048Z,9.35
2022-10-04T13:57:30.149Z,9.68
2022-10-04T14:00:07.653Z,11.57
2022-10-04T14:03:04.885Z,8.70
2022-10-04T14:06:00.933Z,9.00
2022-10-04T14:08:59.193Z,7.83
2022-10-04T14:12:09.349Z,6.50
2022-10-04T14:15:17.576Z,6.55
2022-10-04T14:18:12.307Z,7.60
2022-10-04T14:21:19.151Z,8.05
2022-10-04T14:24:12.316Z,8.40
2022-10-04T14:27:17.272Z,9.07
2022-10-04T14:30:12.781Z,8.48
2022-10-04T14:33:01.448Z,8.25
2022-10-04T14:35:35.603Z,9.88
2022-10-04T14:38:41.734Z,10.60
2022-10-04T14:41:39.112Z,10.67
2022-10-04T14:44:28.844Z,8.97
2022-10-04T14:47:06.435Z,9.40
2022-10-04T14:49:51.707Z,10.27
2022-10-04T14:52:35.019Z,10.45
2022-10-04T14:55:15.295Z,9.70
2022-10-04T14:57:58.299Z,13.73
2022-10-04T15:00:31.356Z,9.48
2022-10-04T15:03:20.263Z,9.40
2022-10-04T15:06:12.869Z,9.40
2022-10-04T15:09:09.658Z,10.10
2022-10-04T15:12:21.570Z,9.90
2022-10-04T15:14:46.464Z,9.13
2022-10-04T15:17:28.622Z,8.02
2022-10-04T15:20:08.234Z,10.85
2022-10-04T15:22:43.886Z,9.57
2022-10-04T15:25:43.760Z,9.20
2022-10-04T15:28:29.421Z,10.25
2022-10-04T15:31:04.661Z,9.27
2022-10-04T15:33:41.806Z,11.57
2022-10-04T15:36:28.664Z,10.63
2022-10-04T15:39:03.220Z,11.27
2022-10-04T15:41:41.651Z,13.85
2022-10-04T15:44:31.581Z,8.60
2022-10-04T15:47:12.498Z,9.48
2022-10-04T15:49:54.201Z,10.77
2022-10-04T15:52:45.486Z,10.13
2022-10-04T15:55:28.477Z,11.57
2022-10-04T15:58:19.873Z,11.32
2022-10-04T16:01:01.399Z,7.47
2022-10-04T16:03:40.820Z,8.90
2022-10-04T16:06:13.938Z,12.18
2022-10-04T16:08:59.205Z,12.45
2022-10-04T16:11:37.141Z,13.65
2022-10-04T16:14:23.380Z,11.63
2022-10-04T16:17:05.708Z,8.55
2022-10-04T16:19:55.286Z,10.48
2022-10-04T16:22:31.242Z,11.50
2022-10-04T16:25:01.979Z,10.60
2022-10-04T16:27:48.527Z,11.60
2022-10-04T16:30:28.382Z,11.15
2022-10-04T16:33:27.483Z,16.85
2022-10-04T16:36:15.005Z,10.02
2022-10-04T16:39:10.279Z,13.38
2022-10-04T16:41:44.734Z,11.25
2022-10-04T16:44:32.100Z,13.55
2022-10-04T16:47:07.043Z,13.25
2022-10-04T16:49:41.825Z,10.40
2022-10-04T16:52:23.445Z,14.30
2022-10-04T16:55:06.941Z,12.73
2022-10-04T16:57:36.504Z,11.93
2022-10-04T17:00:35.408Z,13.40
2022-10-04T17:03:19.939Z,13.90
2022-10-04T17:06:05.069Z,16.17
2022-10-04T17:08:50.615Z,13.50
2022-10-04T17:11:35.780Z,11.13
2022-10-04T17:14:09.874Z,11.60
2022-10-04T17:16:41.057Z,10.48
2022-10-04T17:19:24.855Z,9.75
2022-10-04T17:22:05.848Z,13.05
2022-10-04T17:24:43.871Z,12.68
2022-10-04T17:27:29.853Z,12.10
2022-10-04T17:30:07.872Z,19.07
2022-10-04T17:32:47.410Z,11.85
2022-10-04T17:35:59.289Z,17.63
2022-10-04T17:38:35.201Z,16.02
2022-10-04T17:41:11.296Z,13.00
2022-10-04T17:43:46.404Z,14.07
2022-10-04T17:46:20.397Z,15.55
2022-10-04T17:49:05.191Z,13.80
2022-10-04T17:52:12.906Z,15.70
2022-10-04T17:54:59.855Z,11.35
2022-10-04T17:57:34.182Z,15.93
2022-10-04T18:00:11.777Z,10.13
2022-10-04T18:03:09.412Z,12.73
2022-10-04T18:05:50.631Z,12.40
2022-10-04T18:08:27.268Z,15.43
2022-10-04T18:11:00.200Z,16.97
2022-10-04T18:13:34.585Z,14.30
2022-10-04T18:16:10.125Z,15.98
2022-10-04T18:18:43.750Z,17.87
2022-10-04T18:21:27.305Z,16.80
2022-10-04T18:24:05.278Z,14.35
2022-10-04T18:26:36.081Z,14.68
2022-10-04T18:29:09.390Z,13.98
2022-10-04T18:31:40.682Z,18.55
2022-10-04T18:34:22.059Z,17.42
2022-10-04T18:37:06.500Z,13.97
2022-10-04T18:39:53.126Z,15.80
2022-10-04T18:42:30.598Z,15.68
2022-10-04T18:45:02.571Z,13.30
2022-10-04T18:47:37.069Z,16.15
2022-10-04T18:50:18.900Z,21.13
2022-10-04T18:52:57.861Z,23.00
2022-10-04T18:55:36.854Z,23.95
2022-10-04T18:58:25.178Z,20.80
2022-10-04T19:01:12.263Z,19.60
2022-10-04T19:03:47.052Z,21.73
2022-10-04T19:06:19.697Z,23.70
2022-10-04T19:08:55.943Z,24.13
2022-10-04T19:11:32.232Z,22.85
2022-10-04T19:14:08.424Z,16.95
2022-10-04T19:16:44.707Z,18.55
2022-10-04T19:19:34.355Z,15.52
2022-10-04T19:22:11.107Z,16.35
2022-10-04T19:24:58.876Z,16.08
2022-10-04T19:27:36.438Z,14.70
2022-10-04T19:30:15.456Z,15.77
2022-10-04T19:33:04.642Z,15.32
2022-10-04T19:35:48.637Z,23.70
2022-10-04T19:38:30.207Z,21.02
2022-10-04T19:41:06.601Z,22.42
2022-10-04T19:43:44.645Z,20.30
2022-10-04T19:46:19.992Z,23.50
2022-10-04T19:48:52.420Z,23.00
2022-10-04T19:51:28.476Z,19.27
2022-10-04T19:54:03.869Z,20.48
2022-10-04T19:56:35.867Z,16.50
2022-10-04T19:59:10.385Z,19.87
2022-10-04T20:01:39.912Z,17.00
2022-10-04T20:04:27.108Z,17.55
2022-10-04T20:06:58.618Z,21.90
2022-10-04T20:09:35.399Z,18.70
2022-10-04T20:12:05.301Z,19.25
2022-10-04T20:15:12.972Z,17.80
2022-10-04T20:17:46.206Z,14.88
2022-10-04T20:20:18.780Z,20.80
2022-10-04T20:22:59.765Z,19.00
2022-10-04T20:26:02.199Z,18.40
2022-10-04T20:28:43.777Z,22.27
2022-10-04T20:31:15.013Z,18.55
2022-10-04T20:33:51.305Z,14.02
2022-10-04T20:36:54.549Z,19.48
2022-10-04T20:40:03.089Z,21.05
2022-10-04T20:42:34.854Z,18.50
2022-10-04T20:45:08.213Z,19.67
2022-10-04T20:47:57.556Z,18.17
2022-10-04T20:50:50.905Z,18.90
2022-10-04T20:53:22.836Z,19.87
2022-10-04T20:55:57.168Z,20.42
2022-10-04T20:58:31.587Z,23.35
2022-10-04T21:01:10.965Z,19.07
2022-10-04T21:03:40.596Z,15.38
2022-10-04T21:06:14.728Z,18.73
2022-10-04T21:08:44.255Z,20.52
2022-10-04T21:11:20.817Z,16.17
2022-10-04T21:13:55.424Z,14.80
2022-10-04T21:16:53.491Z,19.60
2022-10-04T21:19:48.730Z,19.95
2022-10-04T21:22:42.427Z,24.07
2022-10-04T21:25:33.890Z,15.75
2022-10-04T21:28:32.545Z,17.92
2022-10-04T21:31:06.403Z,18.73
2022-10-04T21:33:37.008Z,20.23
2022-10-04T21:36:07.573Z,17.02
2022-10-04T21:38:39.699Z,14.95
2022-10-04T21:41:09.523Z,14.48
2022-10-04T21:43:40.078Z,18.15
2022-10-04T21:46:09.831Z,16.45
2022-10-04T21:48:39.406Z,13.25
2022-10-04T21:51:09.049Z,14.47
2022-10-04T21:53:41.194Z,14.65
2022-10-04T21:56:10.742Z,17.15
2022-10-04T21:58:40.313Z,17.27
2022-10-04T22:01:10.079Z,17.20
2022-10-04T22:03:39.659Z,11.43
2022-10-04T22:06:09.330Z,11.88
2022-10-04T22:08:42.972Z,16.13
2022-10-04T22:11:12.685Z,16.50
2022-10-04T22:13:42.614Z,14.90
2022-10-04T22:16:12.200Z,16.67
2022-10-04T22:18:41.856Z,15.20
2022-10-04T22:21:11.492Z,20.45
2022-10-04T22:23:45.555Z,13.17
2022-10-04T22:26:16.377Z,14.65
2022-10-04T22:28:47.781Z,13.70
2022-10-04T22:31:19.286Z,16.08
2022-10-04T22:33:50.561Z,12.80
2022-10-04T22:36:22.686Z,11.70
2022-10-04T22:38:59.928Z,12.57
2022-10-04T22:41:31.169Z,12.25
2022-10-04T22:44:02.732Z,10.65
2022-10-04T22:46:36.360Z,18.00
2022-10-04T22:49:11.740Z,13.75
2022-10-04T22:51:42.809Z,14.00
2022-10-04T22:54:17.346Z,11.65
2022-10-04T22:56:47.488Z,12.85
2022-10-04T22:59:19.780Z,12.55
2022-10-04T23:01:50.483Z,13.23
2022-10-04T23:04:24.879Z,15.90
2022-10-04T23:06:55.262Z,12.97
2022-10-04T23:09:27.343Z,13.70
2022-10-04T23:11:56.883Z,14.50
2022-10-04T23:14:26.521Z,15.00
2022-10-04T23:16:56.139Z,15.18
2022-10-04T23:19:25.708Z,14.07
2022-10-04T23:21:55.312Z,15.73
2022-10-04T23:24:27.429Z,16.17
2022-10-04T23:26:58.379Z,12.77
2022-10-04T23:29:29.697Z,16.25
2022-10-04T23:31:59.767Z,15.18
2022-10-04T23:34:31.911Z,15.57
2022-10-04T23:37:01.720Z,14.80
2022-10-04T23:39:36.116Z,17.52
2022-10-04T23:42:16.110Z,13.63
2022-10-04T23:44:45.786Z,16.20
2022-10-04T23:47:18.081Z,11.23
2022-10-04T23:49:48.413Z,16.38
2022-10-04T23:52:22.979Z,12.53
2022-10-04T23:54:56.693Z,12.98
2022-10-04T23:57:27.989Z,13.43
2022-10-04T23:59:57.568Z,12.65
